createdAt,value
2018-09-01T00:01:28.095Z,6.50
2018-09-01T00:03:57.931Z,5.73
2018-09-01T00:06:27.976Z,5.10
2018-09-01T00:08:57.867Z,6.77
2018-09-01T00:11:28.126Z,6.20
2018-09-01T00:13:58.328Z,4.53
2018-09-01T00:16:28.382Z,5.53
2018-09-01T00:18:58.657Z,9.20
2018-09-01T00:21:29.108Z,6.40
2018-09-01T00:24:02.220Z,7.30
2018-09-01T00:26:32.108Z,6.43
2018-09-01T00:29:02.057Z,5.50
2018-09-01T00:31:31.943Z,6.17
2018-09-01T00:34:01.859Z,7.60
2018-09-01T00:36:31.803Z,4.87
2018-09-01T00:39:03.605Z,6.57
2018-09-01T00:41:33.970Z,6.57
2018-09-01T00:44:04.119Z,7.47
2018-09-01T00:46:34.919Z,7.77
2018-09-01T00:49:04.906Z,6.87
2018-09-01T00:51:35.114Z,8.10
2018-09-01T00:54:05.090Z,4.60
2018-09-01T00:56:35.075Z,6.20
2018-09-01T00:59:05.028Z,5.63
2018-09-01T01:01:35.035Z,6.90
2018-09-01T01:04:04.929Z,5.13
2018-09-01T01:06:34.839Z,4.87
2018-09-01T01:09:05.507Z,8.57
2018-09-01T01:11:35.479Z,6.37
2018-09-01T01:14:05.438Z,4.50
2018-09-01T01:16:35.287Z,4.87
2018-09-01T01:19:05.217Z,6.53
2018-09-01T01:21:35.614Z,8.43
2018-09-01T01:24:05.596Z,5.93
2018-09-01T01:26:35.473Z,7.17
2018-09-01T01:29:05.573Z,7.80
2018-09-01T01:31:35.353Z,6.83
2018-09-01T01:34:05.412Z,7.60
2018-09-01T01:36:35.251Z,6.03
2018-09-01T01:39:06.443Z,5.20
2018-09-01T01:41:36.515Z,5.73
2018-09-01T01:44:07.104Z,5.83
2018-09-01T01:46:37.037Z,6.27
2018-09-01T01:49:07.187Z,6.07
2018-09-01T01:51:37.249Z,8.77
2018-09-01T01:54:07.504Z,7.20
2018-09-01T01:56:37.540Z,9.80
2018-09-01T01:59:08.007Z,6.93
2018-09-01T02:01:37.852Z,6.27
2018-09-01T02:04:07.848Z,9.10
2018-09-01T02:06:37.967Z,5.97
2018-09-01T02:09:08.121Z,12.20
2018-09-01T02:11:37.964Z,7.07
2018-09-01T02:14:08.267Z,4.80
2018-09-01T02:16:38.051Z,6.67
2018-09-01T02:19:08.363Z,6.17
2018-09-01T02:21:38.281Z,5.80
2018-09-01T02:24:08.595Z,6.03
2018-09-01T02:26:38.516Z,6.00
2018-09-01T02:29:08.703Z,7.50
2018-09-01T02:31:38.495Z,7.03
2018-09-01T02:34:08.455Z,6.10
2018-09-01T02:36:38.182Z,6.03
2018-09-01T02:39:08.364Z,7.93
2018-09-01T02:41:38.341Z,6.27
2018-09-01T02:44:08.591Z,5.40
2018-09-01T02:46:38.451Z,6.83
2018-09-01T02:49:08.256Z,8.00
2018-09-01T02:51:38.248Z,4.57
2018-09-01T02:54:08.226Z,7.67
2018-09-01T02:56:38.255Z,7.57
2018-09-01T02:59:08.015Z,6.77
2018-09-01T03:01:38.398Z,5.90
2018-09-01T03:04:08.872Z,7.93
2018-09-01T03:06:56.812Z,11.37
2018-09-01T03:09:27.171Z,6.07
2018-09-01T03:11:58.350Z,9.03
2018-09-01T03:14:28.854Z,8.17
2018-09-01T03:16:58.754Z,4.97
2018-09-01T03:19:28.698Z,5.93
2018-09-01T03:21:58.769Z,6.37
2018-09-01T03:24:28.650Z,8.63
2018-09-01T03:26:58.643Z,6.37
2018-09-01T03:29:28.575Z,10.60
2018-09-01T03:31:58.617Z,7.20
2018-09-01T03:34:28.985Z,7.70
2018-09-01T03:36:58.909Z,10.50
2018-09-01T03:39:29.079Z,10.20
2018-09-01T03:41:58.832Z,7.63
2018-09-01T03:44:28.682Z,7.63
2018-09-01T03:46:58.521Z,8.00
2018-09-01T03:49:28.404Z,9.63
2018-09-01T03:51:58.464Z,9.60
2018-09-01T03:54:28.429Z,7.97
2018-09-01T03:56:58.633Z,10.20
2018-09-01T03:59:28.771Z,8.00
2018-09-01T04:01:58.741Z,7.73
2018-09-01T04:04:28.907Z,8.77
2018-09-01T04:06:58.930Z,8.57
2018-09-01T04:09:28.898Z,8.80
2018-09-01T04:11:58.947Z,7.60
2018-09-01T04:14:28.762Z,8.37
2018-09-01T04:16:58.682Z,9.17
2018-09-01T04:19:28.559Z,6.67
2018-09-01T04:21:58.583Z,8.47
2018-09-01T04:24:28.773Z,7.53
2018-09-01T04:26:58.698Z,5.90
2018-09-01T04:29:28.646Z,7.70
2018-09-01T04:31:58.623Z,6.00
2018-09-01T04:34:28.571Z,6.77
2018-09-01T04:36:58.716Z,9.67
2018-09-01T04:39:28.620Z,5.90
2018-09-01T04:41:58.540Z,8.93
2018-09-01T04:44:28.411Z,6.27
2018-09-01T04:46:59.343Z,7.63
2018-09-01T04:49:29.198Z,6.97
2018-09-01T04:51:59.448Z,9.23
2018-09-01T04:54:29.264Z,10.43
2018-09-01T04:56:59.424Z,7.90
2018-09-01T04:59:29.309Z,6.80
2018-09-01T05:02:00.471Z,6.87
2018-09-01T05:04:30.308Z,8.53
2018-09-01T05:07:01.902Z,9.77
2018-09-01T05:09:32.010Z,6.43
2018-09-01T05:12:02.127Z,6.57
2018-09-01T05:14:32.276Z,7.60
2018-09-01T05:17:02.268Z,9.13
2018-09-01T05:19:32.245Z,10.67
2018-09-01T05:22:02.177Z,5.77
2018-09-01T05:24:32.051Z,6.47
2018-09-01T05:27:01.956Z,7.43
2018-09-01T05:29:31.891Z,7.70
2018-09-01T05:32:01.824Z,9.33
2018-09-01T05:34:31.903Z,8.00
2018-09-01T05:37:01.809Z,9.30
2018-09-01T05:39:31.680Z,8.73
2018-09-01T05:42:01.902Z,9.83
2018-09-01T05:44:32.300Z,15.50
2018-09-01T05:47:02.114Z,10.07
2018-09-01T05:49:32.223Z,12.37
2018-09-01T05:52:02.277Z,10.23
2018-09-01T05:54:32.207Z,7.03
2018-09-01T05:57:02.387Z,14.23
2018-09-01T05:59:32.222Z,12.10
2018-09-01T06:02:02.354Z,12.57
2018-09-01T06:04:32.418Z,13.43
2018-09-01T06:07:02.407Z,9.30
2018-09-01T06:09:32.593Z,8.80
2018-09-01T06:12:02.724Z,11.10
2018-09-01T06:14:32.591Z,11.50
2018-09-01T06:17:02.814Z,8.67
2018-09-01T06:19:32.530Z,8.60
2018-09-01T06:22:02.496Z,10.30
2018-09-01T06:24:32.312Z,8.27
2018-09-01T06:27:06.029Z,11.23
2018-09-01T06:29:36.106Z,9.47
2018-09-01T06:32:07.376Z,6.57
2018-09-01T06:34:37.614Z,12.47
2018-09-01T06:37:07.444Z,11.13
2018-09-01T06:39:37.441Z,9.17
2018-09-01T06:42:07.655Z,8.57
2018-09-01T06:44:37.717Z,8.93
2018-09-01T06:47:07.652Z,11.07
2018-09-01T06:49:37.772Z,9.10
2018-09-01T06:52:07.725Z,7.20
2018-09-01T06:54:37.607Z,11.93
2018-09-01T06:57:07.519Z,12.77
2018-09-01T06:59:37.827Z,5.97
2018-09-01T07:02:08.610Z,11.27
2018-09-01T07:04:38.656Z,7.80
2018-09-01T07:07:08.504Z,9.53
2018-09-01T07:09:38.420Z,10.07
2018-09-01T07:12:08.635Z,11.33
2018-09-01T07:14:38.723Z,9.10
2018-09-01T07:17:08.581Z,9.90
2018-09-01T07:19:38.556Z,12.43
2018-09-01T07:22:08.416Z,11.37
2018-09-01T07:24:38.369Z,10.17
2018-09-01T07:27:08.395Z,8.90
2018-09-01T07:29:38.229Z,8.43
2018-09-01T07:32:08.015Z,12.70
2018-09-01T07:34:38.192Z,10.23
2018-09-01T07:37:08.207Z,6.37
2018-09-01T07:39:38.083Z,8.23
2018-09-01T07:42:08.295Z,10.10
2018-09-01T07:44:38.512Z,8.53
2018-09-01T07:47:08.597Z,9.17
2018-09-01T07:49:38.604Z,10.17
2018-09-01T07:52:09.175Z,7.03
2018-09-01T07:54:39.378Z,7.87
2018-09-01T07:57:09.123Z,9.20
2018-09-01T07:59:39.246Z,9.17
2018-09-01T08:02:09.932Z,7.80
2018-09-01T08:04:41.493Z,8.30
2018-09-01T08:07:11.624Z,9.80
2018-09-01T08:09:41.920Z,8.33
2018-09-01T08:12:11.975Z,6.87
2018-09-01T08:14:42.295Z,9.80
2018-09-01T08:17:12.252Z,9.37
2018-09-01T08:19:42.040Z,5.93
2018-09-01T08:22:12.236Z,9.80
2018-09-01T08:24:42.067Z,7.63
2018-09-01T08:27:12.373Z,6.30
2018-09-01T08:29:42.317Z,9.33
2018-09-01T08:32:12.209Z,5.17
2018-09-01T08:34:42.591Z,7.43
2018-09-01T08:37:12.942Z,8.03
2018-09-01T08:39:43.306Z,5.23
2018-09-01T08:42:13.769Z,5.73
2018-09-01T08:44:44.159Z,5.10
2018-09-01T08:47:14.395Z,4.63
2018-09-01T08:49:44.828Z,7.23
2018-09-01T08:52:15.323Z,7.47
2018-09-01T08:54:45.534Z,6.97
2018-09-01T08:57:15.609Z,6.67
2018-09-01T08:59:45.641Z,3.50
2018-09-01T09:02:15.952Z,5.30
2018-09-01T09:04:45.995Z,3.37
2018-09-01T09:07:16.109Z,5.23
2018-09-01T09:09:46.039Z,3.90
2018-09-01T09:12:16.314Z,5.30
2018-09-01T09:14:46.377Z,3.93
2018-09-01T09:17:16.418Z,4.57
2018-09-01T09:19:46.253Z,2.30
2018-09-01T09:22:16.615Z,2.90
2018-09-01T09:24:46.602Z,3.77
2018-09-01T09:27:16.507Z,3.93
2018-09-01T09:29:46.429Z,5.63
2018-09-01T09:32:16.323Z,4.33
2018-09-01T09:34:46.321Z,3.13
2018-09-01T09:37:16.385Z,3.10
2018-09-01T09:39:46.214Z,2.87
2018-09-01T09:42:16.370Z,4.90
2018-09-01T09:44:46.513Z,2.77
2018-09-01T09:47:16.581Z,2.93
2018-09-01T09:49:46.744Z,3.00
2018-09-01T09:52:16.661Z,6.73
2018-09-01T09:54:46.755Z,3.10
2018-09-01T09:57:17.008Z,2.57
2018-09-01T09:59:46.962Z,4.50
2018-09-01T10:02:16.875Z,4.87
2018-09-01T10:04:47.034Z,4.57
2018-09-01T10:07:17.007Z,3.53
2018-09-01T10:09:46.787Z,3.83
2018-09-01T10:12:16.653Z,2.37
2018-09-01T10:14:46.627Z,3.10
2018-09-01T10:17:16.406Z,2.23
2018-09-01T10:19:46.344Z,3.53
2018-09-01T10:24:53.808Z,3.27
2018-09-01T10:27:28.629Z,4.13
2018-09-01T10:29:58.714Z,2.20
2018-09-01T10:32:28.657Z,2.17
2018-09-01T10:34:59.148Z,3.97
2018-09-01T10:37:31.683Z,5.67
2018-09-01T10:40:01.944Z,2.23
2018-09-01T10:42:32.275Z,5.50
2018-09-01T10:45:04.871Z,1.87
2018-09-01T10:47:34.731Z,3.03
2018-09-01T10:50:06.381Z,1.83
2018-09-01T10:52:36.470Z,1.30
2018-09-01T10:55:07.050Z,1.80
2018-09-01T10:57:36.937Z,1.47
2018-09-01T11:00:07.665Z,2.87
2018-09-01T11:02:44.200Z,3.30
2018-09-01T11:05:14.209Z,2.47
2018-09-01T11:07:44.372Z,3.20
2018-09-01T11:10:14.340Z,4.00
2018-09-01T11:12:44.781Z,2.97
2018-09-01T11:15:14.633Z,2.80
2018-09-01T11:17:44.634Z,2.43
2018-09-01T11:20:14.816Z,3.03
2018-09-01T11:22:45.303Z,2.50
2018-09-01T11:25:17.884Z,1.80
2018-09-01T11:27:51.880Z,2.67
2018-09-01T11:30:21.705Z,3.00
2018-09-01T11:32:51.872Z,4.07
2018-09-01T11:35:21.912Z,2.33
2018-09-01T11:37:51.814Z,3.50
2018-09-01T11:40:22.041Z,5.40
2018-09-01T11:42:52.190Z,1.63
2018-09-01T11:45:21.909Z,2.83
2018-09-01T11:47:51.870Z,2.57
2018-09-01T11:50:21.911Z,3.03
2018-09-01T11:52:53.082Z,1.90
2018-09-01T11:55:28.062Z,2.90
2018-09-01T11:57:58.170Z,3.83
2018-09-01T12:00:28.158Z,2.63
2018-09-01T12:02:57.973Z,6.80
2018-09-01T12:05:28.064Z,2.27
2018-09-01T12:07:58.087Z,3.47
2018-09-01T12:10:28.350Z,2.93
2018-09-01T12:12:58.371Z,4.53
2018-09-01T12:15:28.428Z,4.23
2018-09-01T12:18:01.480Z,3.47
2018-09-01T12:20:31.560Z,3.20
2018-09-01T12:23:02.588Z,2.23
2018-09-01T12:25:32.433Z,2.50
2018-09-01T12:28:02.579Z,3.73
2018-09-01T12:30:32.769Z,2.87
2018-09-01T12:33:03.012Z,5.67
2018-09-01T12:35:32.929Z,6.37
2018-09-01T12:38:02.873Z,4.47
2018-09-01T12:40:32.833Z,3.07
2018-09-01T12:43:02.786Z,3.73
2018-09-01T12:45:32.740Z,2.77
2018-09-01T12:48:02.639Z,3.13
2018-09-01T12:50:32.529Z,2.23
2018-09-01T12:53:02.696Z,3.17
2018-09-01T12:55:32.532Z,3.17
2018-09-01T12:58:02.594Z,4.10
2018-09-01T13:00:32.589Z,3.20
2018-09-01T13:03:02.640Z,2.53
2018-09-01T13:05:32.590Z,4.33
2018-09-01T13:08:02.524Z,3.30
2018-09-01T13:10:32.802Z,3.10
2018-09-01T13:13:02.756Z,3.37
2018-09-01T13:15:32.875Z,3.40
2018-09-01T13:18:02.927Z,4.00
2018-09-01T13:20:32.822Z,3.70
2018-09-01T13:23:02.938Z,5.30
2018-09-01T13:25:33.013Z,4.93
2018-09-01T13:28:03.100Z,2.67
2018-09-01T13:30:33.327Z,2.97
2018-09-01T13:33:03.347Z,2.30
2018-09-01T13:35:33.298Z,5.10
2018-09-01T13:38:03.278Z,3.93
2018-09-01T13:40:33.303Z,4.63
2018-09-01T13:43:03.464Z,2.37
2018-09-01T13:45:33.430Z,2.33
2018-09-01T13:48:03.350Z,4.87
2018-09-01T13:50:33.442Z,2.90
2018-09-01T13:53:03.434Z,3.77
2018-09-01T13:55:33.743Z,3.90
2018-09-01T13:58:03.898Z,4.83
2018-09-01T14:00:34.022Z,3.80
2018-09-01T14:03:04.262Z,4.00
2018-09-01T14:05:34.172Z,3.47
2018-09-01T14:08:04.573Z,3.17
2018-09-01T14:10:35.083Z,2.80
2018-09-01T14:13:05.202Z,2.93
2018-09-01T14:15:35.208Z,3.17
2018-09-01T14:18:05.142Z,4.67
2018-09-01T14:20:34.997Z,2.50
2018-09-01T14:23:04.926Z,2.50
2018-09-01T14:25:34.958Z,4.93
2018-09-01T14:28:04.955Z,4.23
2018-09-01T14:30:35.117Z,3.40
2018-09-01T14:33:05.149Z,3.67
2018-09-01T14:35:35.362Z,4.90
2018-09-01T14:38:05.250Z,3.13
2018-09-01T14:40:35.087Z,4.63
2018-09-01T14:43:05.197Z,2.50
2018-09-01T14:45:35.183Z,2.83
2018-09-01T14:48:05.421Z,3.80
2018-09-01T14:50:35.782Z,3.33
2018-09-01T14:53:05.753Z,2.77
2018-09-01T14:55:35.650Z,3.10
2018-09-01T14:58:05.784Z,5.70
2018-09-01T15:00:35.838Z,3.83
2018-09-01T15:03:05.715Z,3.40
2018-09-01T15:05:35.744Z,5.17
2018-09-01T15:08:05.937Z,4.07
2018-09-01T15:10:35.918Z,3.20
2018-09-01T15:13:05.917Z,2.67
2018-09-01T15:15:35.755Z,3.80
2018-09-01T15:18:05.729Z,3.07
2018-09-01T15:20:35.776Z,4.63
2018-09-01T15:23:05.983Z,6.50
2018-09-01T15:25:35.962Z,4.60
2018-09-01T15:28:05.943Z,3.17
2018-09-01T15:30:35.731Z,9.90
2018-09-01T15:33:05.806Z,3.73
2018-09-01T15:35:35.845Z,4.33
2018-09-01T15:38:05.762Z,4.67
2018-09-01T15:40:35.678Z,6.30
2018-09-01T15:43:05.772Z,3.77
2018-09-01T15:45:36.105Z,4.23
2018-09-01T15:48:06.163Z,3.37
2018-09-01T15:50:36.089Z,2.80
2018-09-01T15:53:06.205Z,3.33
2018-09-01T15:55:36.178Z,4.47
2018-09-01T15:58:05.118Z,4.60
2018-09-01T16:00:35.057Z,3.00
2018-09-01T16:03:05.260Z,3.60
2018-09-01T16:05:35.566Z,3.03
2018-09-01T16:08:06.186Z,4.00
2018-09-01T16:10:36.211Z,5.23
2018-09-01T16:13:06.484Z,5.67
2018-09-01T16:15:36.401Z,3.97
2018-09-01T16:18:06.524Z,7.33
2018-09-01T16:20:36.778Z,3.03
2018-09-01T16:23:07.409Z,5.67
2018-09-01T16:25:37.601Z,3.67
2018-09-01T16:28:07.992Z,7.10
2018-09-01T16:30:41.296Z,4.77
2018-09-01T16:33:11.334Z,8.03
2018-09-01T16:35:42.580Z,2.53
2018-09-01T16:38:12.540Z,5.33
2018-09-01T16:40:42.543Z,5.20
2018-09-01T16:43:12.492Z,3.00
2018-09-01T16:45:43.041Z,4.97
2018-09-01T16:48:13.314Z,3.80
2018-09-01T16:50:43.285Z,6.43
2018-09-01T16:53:13.149Z,3.70
2018-09-01T16:55:43.027Z,4.03
2018-09-01T16:58:13.030Z,3.43
2018-09-01T17:00:43.360Z,3.50
2018-09-01T17:03:13.504Z,5.10
2018-09-01T17:05:43.502Z,6.83
2018-09-01T17:08:13.481Z,5.00
2018-09-01T17:10:43.331Z,6.47
2018-09-01T17:13:13.153Z,3.03
2018-09-01T17:15:43.007Z,4.03
2018-09-01T17:18:13.067Z,4.00
2018-09-01T17:20:43.160Z,4.97
2018-09-01T17:23:19.804Z,6.00
2018-09-01T17:25:50.081Z,4.27
2018-09-01T17:28:20.013Z,3.97
2018-09-01T17:30:50.271Z,5.17
2018-09-01T17:33:20.425Z,4.90
2018-09-01T17:35:50.658Z,6.03
2018-09-01T17:38:20.452Z,5.23
2018-09-01T17:40:50.410Z,7.27
2018-09-01T17:43:20.440Z,8.33
2018-09-01T17:45:50.610Z,6.53
2018-09-01T17:48:21.293Z,4.30
2018-09-01T17:50:51.510Z,3.87
2018-09-01T17:53:21.521Z,4.50
2018-09-01T17:55:51.906Z,5.33
2018-09-01T17:58:21.915Z,4.10
2018-09-01T18:00:52.767Z,4.80
2018-09-01T18:03:22.791Z,3.13
2018-09-01T18:05:52.761Z,6.00
2018-09-01T18:08:23.532Z,3.97
2018-09-01T18:10:53.461Z,3.73
2018-09-01T18:13:23.718Z,2.90
2018-09-01T18:15:54.169Z,5.57
2018-09-01T18:18:24.599Z,3.83
2018-09-01T18:20:54.835Z,5.03
2018-09-01T18:23:24.763Z,4.27
2018-09-01T18:25:54.644Z,3.60
2018-09-01T18:28:25.504Z,5.17
2018-09-01T18:30:56.259Z,4.73
2018-09-01T18:33:26.288Z,4.53
2018-09-01T18:35:56.541Z,4.23
2018-09-01T18:38:26.417Z,7.90
2018-09-01T18:40:57.063Z,7.07
2018-09-01T18:43:27.538Z,6.23
2018-09-01T18:45:57.677Z,5.53
2018-09-01T18:48:27.753Z,7.43
2018-09-01T18:50:58.116Z,4.40
2018-09-01T18:53:28.156Z,5.83
2018-09-01T18:55:58.548Z,5.20
2018-09-01T18:58:28.444Z,6.57
2018-09-01T19:00:58.503Z,5.33
2018-09-01T19:03:28.599Z,7.43
2018-09-01T19:05:58.670Z,5.43
2018-09-01T19:08:28.801Z,5.83
2018-09-01T19:10:58.719Z,7.07
2018-09-01T19:13:28.675Z,5.13
2018-09-01T19:15:58.789Z,6.80
2018-09-01T19:18:28.716Z,5.43
2018-09-01T19:20:58.771Z,5.27
2018-09-01T19:23:28.787Z,6.47
2018-09-01T19:25:58.815Z,4.93
2018-09-01T19:28:28.768Z,7.37
2018-09-01T19:30:58.905Z,5.17
2018-09-01T19:33:28.876Z,6.47
2018-09-01T19:35:59.600Z,5.80
2018-09-01T19:38:29.468Z,6.00
2018-09-01T19:40:59.459Z,5.80
2018-09-01T19:43:29.646Z,5.00
2018-09-01T19:45:59.955Z,5.90
2018-09-01T19:48:29.967Z,5.07
2018-09-01T19:51:01.060Z,7.37
2018-09-01T19:53:31.037Z,6.83
2018-09-01T19:56:01.257Z,6.53
2018-09-01T19:58:31.230Z,7.73
2018-09-01T20:01:01.295Z,5.60
2018-09-01T20:03:31.356Z,4.77
2018-09-01T20:06:02.046Z,5.60
2018-09-01T20:08:32.951Z,3.63
2018-09-01T20:11:03.477Z,6.07
2018-09-01T20:13:33.398Z,8.00
2018-09-01T20:16:03.408Z,7.03
2018-09-01T20:18:33.755Z,4.60
2018-09-01T20:21:03.855Z,6.67
2018-09-01T20:23:34.105Z,5.13
2018-09-01T20:26:04.420Z,7.17
2018-09-01T20:28:34.312Z,7.23
2018-09-01T20:31:04.541Z,6.30
2018-09-01T20:33:34.697Z,6.60
2018-09-01T20:36:04.661Z,5.17
2018-09-01T20:38:35.028Z,5.27
2018-09-01T20:41:04.969Z,6.13
2018-09-01T20:43:35.174Z,6.67
2018-09-01T20:46:05.157Z,4.77
2018-09-01T20:48:35.200Z,6.17
2018-09-01T20:51:05.554Z,4.70
2018-09-01T20:53:35.688Z,5.47
2018-09-01T20:56:05.979Z,6.47
2018-09-01T20:58:36.376Z,5.77
2018-09-01T21:01:06.551Z,4.97
2018-09-01T21:03:36.583Z,5.20
2018-09-01T21:06:06.869Z,5.80
2018-09-01T21:08:36.754Z,5.47
2018-09-01T21:11:07.093Z,9.33
2018-09-01T21:13:37.548Z,5.07
2018-09-01T21:16:08.034Z,7.57
2018-09-01T21:18:37.880Z,5.90
2018-09-01T21:21:08.031Z,7.40
2018-09-01T21:23:38.260Z,6.30
2018-09-01T21:26:08.442Z,6.17
2018-09-01T21:28:38.692Z,8.67
2018-09-01T21:31:08.570Z,5.20
2018-09-01T21:33:38.519Z,5.43
2018-09-01T21:36:08.863Z,9.50
2018-09-01T21:38:38.748Z,5.53
2018-09-01T21:41:08.901Z,6.77
2018-09-01T21:43:39.032Z,6.60
2018-09-01T21:46:08.937Z,4.83
2018-09-01T21:48:38.924Z,8.80
2018-09-01T21:51:08.798Z,5.97
2018-09-01T21:53:38.712Z,6.53
2018-09-01T21:56:08.940Z,8.07
2018-09-01T21:58:39.100Z,6.67
2018-09-01T22:01:14.640Z,7.40
2018-09-01T22:03:48.227Z,5.50
2018-09-01T22:06:23.501Z,9.17
2018-09-01T22:08:53.875Z,13.13
2018-09-01T22:11:23.891Z,9.40
2018-09-01T22:13:54.100Z,8.33
2018-09-01T22:16:24.149Z,5.63
2018-09-01T22:18:54.278Z,9.93
2018-09-01T22:21:24.424Z,6.23
2018-09-01T22:23:54.306Z,7.27
2018-09-01T22:26:24.396Z,12.57
2018-09-01T22:28:54.244Z,9.83
2018-09-01T22:31:24.695Z,9.37
2018-09-01T22:33:54.619Z,9.67
2018-09-01T22:36:24.585Z,9.77
2018-09-01T22:38:54.473Z,10.40
2018-09-01T22:41:24.496Z,13.93
2018-09-01T22:43:54.547Z,9.00
2018-09-01T22:46:24.647Z,9.17
2018-09-01T22:48:54.829Z,8.83
2018-09-01T22:51:24.916Z,7.67
2018-09-01T22:53:54.858Z,10.10
2018-09-01T22:56:24.842Z,10.30
2018-09-01T22:58:54.789Z,11.63
2018-09-01T23:01:24.973Z,8.43
2018-09-01T23:03:55.427Z,12.73
2018-09-01T23:06:25.747Z,13.13
2018-09-01T23:08:55.758Z,10.00
2018-09-01T23:11:25.724Z,11.00
2018-09-01T23:13:55.683Z,10.23
2018-09-01T23:16:25.705Z,10.90
2018-09-01T23:18:55.618Z,8.70
2018-09-01T23:21:25.438Z,10.13
2018-09-01T23:23:55.381Z,8.93
2018-09-01T23:26:25.320Z,8.73
2018-09-01T23:28:55.199Z,14.13
2018-09-01T23:31:25.397Z,14.73
2018-09-01T23:33:55.236Z,14.63
2018-09-01T23:36:25.181Z,10.47
2018-09-01T23:38:55.011Z,9.17
2018-09-01T23:41:25.041Z,9.80
2018-09-01T23:43:55.144Z,10.57
2018-09-01T23:46:25.058Z,7.57
2018-09-01T23:48:55.017Z,9.23
2018-09-01T23:51:25.039Z,10.37
2018-09-01T23:53:55.163Z,8.17
2018-09-01T23:56:24.957Z,5.77
2018-09-01T23:58:54.759Z,7.27
